sensor_id;sensor_type;location;lat;lon;timestamp;temperature;humidity
69533;DHT22;56729;52.036;5.332;2023-09-19T00:00:01;14.70;99.90
69533;DHT22;56729;52.036;5.332;2023-09-19T00:01:06;14.70;99.90
69533;DHT22;56729;52.036;5.332;2023-09-19T00:02:13;14.60;99.90
69533;DHT22;56729;52.036;5.332;2023-09-19T00:03:16;14.60;99.90
69533;DHT22;56729;52.036;5.332;2023-09-19T00:04:19;14.60;99.90
69533;DHT22;56729;52.036;5.332;2023-09-19T00:05:26;14.60;99.90
69533;DHT22;56729;52.036;5.332;2023-09-19T00:06:29;14.60;99.90
69533;DHT22;56729;52.036;5.332;2023-09-19T00:07:33;14.60;99.90
69533;DHT22;56729;52.036;5.332;2023-09-19T00:08:38;14.60;99.90
69533;DHT22;56729;52.036;5.332;2023-09-19T00:09:41;14.60;99.90
69533;DHT22;56729;52.036;5.332;2023-09-19T00:10:46;14.60;99.90
69533;DHT22;56729;52.036;5.332;2023-09-19T00:11:50;14.60;99.90
69533;DHT22;56729;52.036;5.332;2023-09-19T00:12:55;14.70;99.90
69533;DHT22;56729;52.036;5.332;2023-09-19T00:13:59;14.70;99.90
69533;DHT22;56729;52.036;5.332;2023-09-19T00:15:01;14.70;99.90
69533;DHT22;56729;52.036;5.332;2023-09-19T00:16:11;14.70;99.90
69533;DHT22;56729;52.036;5.332;2023-09-19T00:17:13;14.70;99.90
69533;DHT22;56729;52.036;5.332;2023-09-19T00:18:19;14.70;99.90
69533;DHT22;56729;52.036;5.332;2023-09-19T00:19:26;14.70;99.90
69533;DHT22;56729;52.036;5.332;2023-09-19T00:20:30;14.70;99.90
69533;DHT22;56729;52.036;5.332;2023-09-19T00:21:34;14.70;99.90
69533;DHT22;56729;52.036;5.332;2023-09-19T00:22:39;14.70;99.90
69533;DHT22;56729;52.036;5.332;2023-09-19T00:23:42;14.70;99.90
69533;DHT22;56729;52.036;5.332;2023-09-19T00:24:44;14.70;99.90
69533;DHT22;56729;52.036;5.332;2023-09-19T00:25:48;14.70;99.90
69533;DHT22;56729;52.036;5.332;2023-09-19T00:26:50;14.70;99.90
69533;DHT22;56729;52.036;5.332;2023-09-19T00:27:52;14.70;99.90
69533;DHT22;56729;52.036;5.332;2023-09-19T00:28:55;14.70;99.90
69533;DHT22;56729;52.036;5.332;2023-09-19T00:29:59;14.70;99.90
69533;DHT22;56729;52.036;5.332;2023-09-19T00:31:02;14.70;99.90
69533;DHT22;56729;52.036;5.332;2023-09-19T00:32:07;14.70;99.90
69533;DHT22;56729;52.036;5.332;2023-09-19T00:33:09;14.70;99.90
69533;DHT22;56729;52.036;5.332;2023-09-19T00:34:14;14.70;99.90
69533;DHT22;56729;52.036;5.332;2023-09-19T00:35:16;14.70;99.90
69533;DHT22;56729;52.036;5.332;2023-09-19T00:36:19;14.70;99.90
69533;DHT22;56729;52.036;5.332;2023-09-19T00:37:22;14.70;99.90
69533;DHT22;56729;52.036;5.332;2023-09-19T00:38:24;14.70;99.90
69533;DHT22;56729;52.036;5.332;2023-09-19T00:39:29;14.70;99.90
69533;DHT22;56729;52.036;5.332;2023-09-19T00:40:34;14.70;99.90
69533;DHT22;56729;52.036;5.332;2023-09-19T00:41:37;14.70;99.90
69533;DHT22;56729;52.036;5.332;2023-09-19T00:42:40;14.70;99.90
69533;DHT22;56729;52.036;5.332;2023-09-19T00:43:42;14.70;99.90
69533;DHT22;56729;52.036;5.332;2023-09-19T00:44:44;14.80;99.90
69533;DHT22;56729;52.036;5.332;2023-09-19T00:45:48;14.70;99.90
69533;DHT22;56729;52.036;5.332;2023-09-19T00:46:52;14.70;99.90
69533;DHT22;56729;52.036;5.332;2023-09-19T00:47:54;14.80;99.90
69533;DHT22;56729;52.036;5.332;2023-09-19T00:48:57;14.70;99.90
69533;DHT22;56729;52.036;5.332;2023-09-19T00:49:58;14.80;99.90
69533;DHT22;56729;52.036;5.332;2023-09-19T00:51:02;14.80;99.90
69533;DHT22;56729;52.036;5.332;2023-09-19T00:52:07;14.80;99.90
69533;DHT22;56729;52.036;5.332;2023-09-19T00:53:17;14.80;99.90
69533;DHT22;56729;52.036;5.332;2023-09-19T00:54:20;14.80;99.90
69533;DHT22;56729;52.036;5.332;2023-09-19T00:55:24;14.80;99.90
69533;DHT22;56729;52.036;5.332;2023-09-19T00:56:26;14.80;99.90
69533;DHT22;56729;52.036;5.332;2023-09-19T00:57:29;14.80;99.90
69533;DHT22;56729;52.036;5.332;2023-09-19T00:58:31;14.80;99.90
69533;DHT22;56729;52.036;5.332;2023-09-19T00:59:35;14.80;99.90
69533;DHT22;56729;52.036;5.332;2023-09-19T01:00:38;14.80;99.90
69533;DHT22;56729;52.036;5.332;2023-09-19T01:01:40;14.80;99.90
69533;DHT22;56729;52.036;5.332;2023-09-19T01:02:43;14.90;99.90
69533;DHT22;56729;52.036;5.332;2023-09-19T01:03:47;14.90;99.90
69533;DHT22;56729;52.036;5.332;2023-09-19T01:04:49;14.90;99.90
69533;DHT22;56729;52.036;5.332;2023-09-19T01:05:51;14.90;99.90
69533;DHT22;56729;52.036;5.332;2023-09-19T01:06:53;14.90;99.90
69533;DHT22;56729;52.036;5.332;2023-09-19T01:07:56;14.90;99.90
69533;DHT22;56729;52.036;5.332;2023-09-19T01:08:58;14.90;99.90
69533;DHT22;56729;52.036;5.332;2023-09-19T01:10:03;14.90;99.90
69533;DHT22;56729;52.036;5.332;2023-09-19T01:11:21;14.90;99.90
69533;DHT22;56729;52.036;5.332;2023-09-19T01:16:56;14.90;99.90
69533;DHT22;56729;52.036;5.332;2023-09-19T01:18:03;14.90;99.90
69533;DHT22;56729;52.036;5.332;2023-09-19T01:21:57;14.90;99.90
69533;DHT22;56729;52.036;5.332;2023-09-19T01:23:12;14.90;99.90
69533;DHT22;56729;52.036;5.332;2023-09-19T01:24:33;14.90;99.90
69533;DHT22;56729;52.036;5.332;2023-09-19T01:28:51;14.90;99.90
69533;DHT22;56729;52.036;5.332;2023-09-19T01:30:08;14.90;99.90
69533;DHT22;56729;52.036;5.332;2023-09-19T01:31:11;14.90;99.90
69533;DHT22;56729;52.036;5.332;2023-09-19T01:32:16;14.90;99.90
69533;DHT22;56729;52.036;5.332;2023-09-19T01:33:21;14.90;99.90
69533;DHT22;56729;52.036;5.332;2023-09-19T01:34:25;14.90;99.90
69533;DHT22;56729;52.036;5.332;2023-09-19T01:35:28;14.90;99.90
69533;DHT22;56729;52.036;5.332;2023-09-19T01:36:34;14.90;99.90
69533;DHT22;56729;52.036;5.332;2023-09-19T01:37:43;14.90;99.90
69533;DHT22;56729;52.036;5.332;2023-09-19T01:38:45;14.90;99.90
69533;DHT22;56729;52.036;5.332;2023-09-19T01:39:55;15.00;99.90
69533;DHT22;56729;52.036;5.332;2023-09-19T01:41:06;15.00;99.90
69533;DHT22;56729;52.036;5.332;2023-09-19T01:43:42;15.00;99.90
69533;DHT22;56729;52.036;5.332;2023-09-19T01:44:59;15.00;99.90
69533;DHT22;56729;52.036;5.332;2023-09-19T01:46:12;15.00;99.90
69533;DHT22;56729;52.036;5.332;2023-09-19T01:47:26;15.00;99.90
69533;DHT22;56729;52.036;5.332;2023-09-19T01:48:45;15.00;99.90
69533;DHT22;56729;52.036;5.332;2023-09-19T01:49:56;15.00;99.90
69533;DHT22;56729;52.036;5.332;2023-09-19T01:51:07;14.90;99.90
69533;DHT22;56729;52.036;5.332;2023-09-19T01:52:13;15.00;99.90
69533;DHT22;56729;52.036;5.332;2023-09-19T01:53:33;15.00;99.90
69533;DHT22;56729;52.036;5.332;2023-09-19T01:54:51;14.90;99.90
69533;DHT22;56729;52.036;5.332;2023-09-19T01:55:54;14.90;99.90
69533;DHT22;56729;52.036;5.332;2023-09-19T01:58:30;14.90;99.90
69533;DHT22;56729;52.036;5.332;2023-09-19T01:59:43;14.90;99.90
69533;DHT22;56729;52.036;5.332;2023-09-19T02:00:48;14.80;99.90
69533;DHT22;56729;52.036;5.332;2023-09-19T02:01:56;14.90;99.90
69533;DHT22;56729;52.036;5.332;2023-09-19T02:02:59;14.90;99.90
69533;DHT22;56729;52.036;5.332;2023-09-19T02:04:01;14.80;99.90
69533;DHT22;56729;52.036;5.332;2023-09-19T02:05:06;14.90;99.90
69533;DHT22;56729;52.036;5.332;2023-09-19T02:06:14;14.80;99.90
69533;DHT22;56729;52.036;5.332;2023-09-19T02:07:17;14.80;99.90
69533;DHT22;56729;52.036;5.332;2023-09-19T02:08:22;14.80;99.90
69533;DHT22;56729;52.036;5.332;2023-09-19T02:09:27;14.80;99.90
69533;DHT22;56729;52.036;5.332;2023-09-19T02:10:29;14.90;99.90
69533;DHT22;56729;52.036;5.332;2023-09-19T02:11:33;14.80;99.90
69533;DHT22;56729;52.036;5.332;2023-09-19T02:12:36;14.80;99.90
69533;DHT22;56729;52.036;5.332;2023-09-19T02:13:38;14.80;99.90
69533;DHT22;56729;52.036;5.332;2023-09-19T02:14:41;14.80;99.90
69533;DHT22;56729;52.036;5.332;2023-09-19T02:15:45;14.80;99.90
69533;DHT22;56729;52.036;5.332;2023-09-19T02:16:49;14.70;99.90
69533;DHT22;56729;52.036;5.332;2023-09-19T02:17:53;14.70;99.90
69533;DHT22;56729;52.036;5.332;2023-09-19T02:18:55;14.70;99.90
69533;DHT22;56729;52.036;5.332;2023-09-19T02:19:57;14.70;99.90
69533;DHT22;56729;52.036;5.332;2023-09-19T02:21:01;14.70;99.90
69533;DHT22;56729;52.036;5.332;2023-09-19T02:22:04;14.70;99.90
69533;DHT22;56729;52.036;5.332;2023-09-19T02:23:10;14.60;99.90
69533;DHT22;56729;52.036;5.332;2023-09-19T02:24:12;14.60;99.90
69533;DHT22;56729;52.036;5.332;2023-09-19T02:25:14;14.60;99.90
69533;DHT22;56729;52.036;5.332;2023-09-19T02:26:19;14.60;99.90
69533;DHT22;56729;52.036;5.332;2023-09-19T02:27:23;14.60;99.90
69533;DHT22;56729;52.036;5.332;2023-09-19T02:28:28;14.60;99.90
69533;DHT22;56729;52.036;5.332;2023-09-19T02:29:32;14.50;99.90
69533;DHT22;56729;52.036;5.332;2023-09-19T02:30:37;14.50;99.90
69533;DHT22;56729;52.036;5.332;2023-09-19T02:31:42;14.50;99.90
69533;DHT22;56729;52.036;5.332;2023-09-19T02:32:44;14.50;99.90
69533;DHT22;56729;52.036;5.332;2023-09-19T02:33:47;14.50;99.90
69533;DHT22;56729;52.036;5.332;2023-09-19T02:34:49;14.50;99.90
69533;DHT22;56729;52.036;5.332;2023-09-19T02:35:56;14.50;99.90
69533;DHT22;56729;52.036;5.332;2023-09-19T02:37:06;14.50;99.90
69533;DHT22;56729;52.036;5.332;2023-09-19T02:38:09;14.40;99.90
69533;DHT22;56729;52.036;5.332;2023-09-19T02:39:13;14.40;99.90
69533;DHT22;56729;52.036;5.332;2023-09-19T02:40:15;14.40;99.90
69533;DHT22;56729;52.036;5.332;2023-09-19T02:41:21;14.40;99.90
69533;DHT22;56729;52.036;5.332;2023-09-19T02:42:23;14.40;99.90
69533;DHT22;56729;52.036;5.332;2023-09-19T02:43:25;14.40;99.90
69533;DHT22;56729;52.036;5.332;2023-09-19T02:44:28;14.40;99.90
69533;DHT22;56729;52.036;5.332;2023-09-19T02:45:31;14.30;99.90
69533;DHT22;56729;52.036;5.332;2023-09-19T02:46:35;14.30;99.90
69533;DHT22;56729;52.036;5.332;2023-09-19T02:47:40;14.30;99.90
69533;DHT22;56729;52.036;5.332;2023-09-19T02:48:42;14.30;99.90
69533;DHT22;56729;52.036;5.332;2023-09-19T02:49:46;14.30;99.90
69533;DHT22;56729;52.036;5.332;2023-09-19T02:50:50;14.30;99.90
69533;DHT22;56729;52.036;5.332;2023-09-19T02:51:52;14.30;99.90
69533;DHT22;56729;52.036;5.332;2023-09-19T02:52:54;14.20;99.90
69533;DHT22;56729;52.036;5.332;2023-09-19T02:53:59;14.20;99.90
69533;DHT22;56729;52.036;5.332;2023-09-19T02:55:01;14.20;99.90
69533;DHT22;56729;52.036;5.332;2023-09-19T02:56:03;14.10;99.90
69533;DHT22;56729;52.036;5.332;2023-09-19T02:57:06;14.10;99.90
69533;DHT22;56729;52.036;5.332;2023-09-19T02:58:09;14.10;99.90
69533;DHT22;56729;52.036;5.332;2023-09-19T02:59:13;14.10;99.90
69533;DHT22;56729;52.036;5.332;2023-09-19T03:00:18;14.10;99.90
69533;DHT22;56729;52.036;5.332;2023-09-19T03:01:23;14.10;99.90
69533;DHT22;56729;52.036;5.332;2023-09-19T03:02:26;14.10;99.90
69533;DHT22;56729;52.036;5.332;2023-09-19T03:03:29;14.10;99.90
69533;DHT22;56729;52.036;5.332;2023-09-19T03:04:31;14.00;99.90
69533;DHT22;56729;52.036;5.332;2023-09-19T03:05:35;14.10;99.90
69533;DHT22;56729;52.036;5.332;2023-09-19T03:06:37;14.00;99.90
69533;DHT22;56729;52.036;5.332;2023-09-19T03:07:40;14.00;99.90
69533;DHT22;56729;52.036;5.332;2023-09-19T03:08:46;14.00;99.90
69533;DHT22;56729;52.036;5.332;2023-09-19T03:09:49;14.00;99.90
69533;DHT22;56729;52.036;5.332;2023-09-19T03:10:51;14.00;99.90
69533;DHT22;56729;52.036;5.332;2023-09-19T03:11:54;14.00;99.90
69533;DHT22;56729;52.036;5.332;2023-09-19T03:12:57;13.90;99.90
69533;DHT22;56729;52.036;5.332;2023-09-19T03:14:01;13.90;99.90
69533;DHT22;56729;52.036;5.332;2023-09-19T03:15:04;13.90;99.90
69533;DHT22;56729;52.036;5.332;2023-09-19T03:16:07;13.90;99.90
69533;DHT22;56729;52.036;5.332;2023-09-19T03:17:09;13.80;99.90
69533;DHT22;56729;52.036;5.332;2023-09-19T03:18:11;13.80;99.90
69533;DHT22;56729;52.036;5.332;2023-09-19T03:19:14;13.80;99.90
69533;DHT22;56729;52.036;5.332;2023-09-19T03:20:18;13.80;99.90
69533;DHT22;56729;52.036;5.332;2023-09-19T03:21:22;13.70;99.90
69533;DHT22;56729;52.036;5.332;2023-09-19T03:22:24;13.70;99.90
69533;DHT22;56729;52.036;5.332;2023-09-19T03:23:27;13.70;99.90
69533;DHT22;56729;52.036;5.332;2023-09-19T03:24:30;13.70;99.90
69533;DHT22;56729;52.036;5.332;2023-09-19T03:25:35;13.70;99.90
69533;DHT22;56729;52.036;5.332;2023-09-19T03:26:40;13.60;99.90
69533;DHT22;56729;52.036;5.332;2023-09-19T03:27:42;13.60;99.90
69533;DHT22;56729;52.036;5.332;2023-09-19T03:28:45;13.60;99.90
69533;DHT22;56729;52.036;5.332;2023-09-19T03:29:48;13.60;99.90
69533;DHT22;56729;52.036;5.332;2023-09-19T03:31:04;13.60;99.90
69533;DHT22;56729;52.036;5.332;2023-09-19T03:32:09;13.60;99.90
69533;DHT22;56729;52.036;5.332;2023-09-19T03:33:14;13.60;99.90
69533;DHT22;56729;52.036;5.332;2023-09-19T03:34:16;13.60;99.90
69533;DHT22;56729;52.036;5.332;2023-09-19T03:35:18;13.60;99.90
69533;DHT22;56729;52.036;5.332;2023-09-19T03:36:21;13.60;99.90
69533;DHT22;56729;52.036;5.332;2023-09-19T03:37:23;13.50;99.90
69533;DHT22;56729;52.036;5.332;2023-09-19T03:38:26;13.50;99.90
69533;DHT22;56729;52.036;5.332;2023-09-19T03:39:28;13.50;99.90
69533;DHT22;56729;52.036;5.332;2023-09-19T03:40:30;13.50;99.90
69533;DHT22;56729;52.036;5.332;2023-09-19T03:41:33;13.50;99.90
69533;DHT22;56729;52.036;5.332;2023-09-19T03:42:40;13.50;99.90
69533;DHT22;56729;52.036;5.332;2023-09-19T03:43:46;13.50;99.90
69533;DHT22;56729;52.036;5.332;2023-09-19T03:44:48;13.50;99.90
69533;DHT22;56729;52.036;5.332;2023-09-19T03:45:50;13.40;99.90
69533;DHT22;56729;52.036;5.332;2023-09-19T03:46:53;13.50;99.90
69533;DHT22;56729;52.036;5.332;2023-09-19T03:47:58;13.40;99.90
69533;DHT22;56729;52.036;5.332;2023-09-19T03:49:01;13.40;99.90
69533;DHT22;56729;52.036;5.332;2023-09-19T03:50:05;13.40;99.90
69533;DHT22;56729;52.036;5.332;2023-09-19T03:51:09;13.40;99.90
69533;DHT22;56729;52.036;5.332;2023-09-19T03:52:12;13.40;99.90
69533;DHT22;56729;52.036;5.332;2023-09-19T03:53:15;13.40;99.90
69533;DHT22;56729;52.036;5.332;2023-09-19T03:54:17;13.30;99.90
69533;DHT22;56729;52.036;5.332;2023-09-19T03:55:21;13.30;99.90
69533;DHT22;56729;52.036;5.332;2023-09-19T03:56:23;13.30;99.90
69533;DHT22;56729;52.036;5.332;2023-09-19T03:57:25;13.30;99.90
69533;DHT22;56729;52.036;5.332;2023-09-19T03:58:28;13.30;99.90
69533;DHT22;56729;52.036;5.332;2023-09-19T03:59:30;13.30;99.90
69533;DHT22;56729;52.036;5.332;2023-09-19T04:00:32;13.30;99.90
69533;DHT22;56729;52.036;5.332;2023-09-19T04:01:40;13.30;99.90
69533;DHT22;56729;52.036;5.332;2023-09-19T04:02:42;13.30;99.90
69533;DHT22;56729;52.036;5.332;2023-09-19T04:03:45;13.30;99.90
69533;DHT22;56729;52.036;5.332;2023-09-19T04:04:49;13.20;99.90
69533;DHT22;56729;52.036;5.332;2023-09-19T04:05:51;13.20;99.90
69533;DHT22;56729;52.036;5.332;2023-09-19T04:06:53;13.20;99.90
69533;DHT22;56729;52.036;5.332;2023-09-19T04:07:55;13.20;99.90
69533;DHT22;56729;52.036;5.332;2023-09-19T04:08:57;13.20;99.90
69533;DHT22;56729;52.036;5.332;2023-09-19T04:10:00;13.20;99.90
69533;DHT22;56729;52.036;5.332;2023-09-19T04:11:02;13.20;99.90
69533;DHT22;56729;52.036;5.332;2023-09-19T04:12:04;13.20;99.90
69533;DHT22;56729;52.036;5.332;2023-09-19T04:13:06;13.20;99.90
69533;DHT22;56729;52.036;5.332;2023-09-19T04:14:09;13.20;99.90
69533;DHT22;56729;52.036;5.332;2023-09-19T04:15:11;13.20;99.90
69533;DHT22;56729;52.036;5.332;2023-09-19T04:16:15;13.20;99.90
69533;DHT22;56729;52.036;5.332;2023-09-19T04:17:17;13.20;99.90
69533;DHT22;56729;52.036;5.332;2023-09-19T04:18:21;13.20;99.90
69533;DHT22;56729;52.036;5.332;2023-09-19T04:19:25;13.20;99.90
69533;DHT22;56729;52.036;5.332;2023-09-19T04:20:27;13.20;99.90
69533;DHT22;56729;52.036;5.332;2023-09-19T04:21:28;13.20;99.90
69533;DHT22;56729;52.036;5.332;2023-09-19T04:22:30;13.10;99.90
69533;DHT22;56729;52.036;5.332;2023-09-19T04:23:33;13.10;99.90
69533;DHT22;56729;52.036;5.332;2023-09-19T04:24:35;13.10;99.90
69533;DHT22;56729;52.036;5.332;2023-09-19T04:25:37;13.10;99.90
69533;DHT22;56729;52.036;5.332;2023-09-19T04:26:41;13.10;99.90
69533;DHT22;56729;52.036;5.332;2023-09-19T04:27:44;13.10;99.90
69533;DHT22;56729;52.036;5.332;2023-09-19T04:28:47;13.10;99.90
69533;DHT22;56729;52.036;5.332;2023-09-19T04:29:49;13.10;99.90
69533;DHT22;56729;52.036;5.332;2023-09-19T04:30:53;13.00;99.90
69533;DHT22;56729;52.036;5.332;2023-09-19T04:31:56;13.10;99.90
69533;DHT22;56729;52.036;5.332;2023-09-19T04:32:59;13.00;99.90
69533;DHT22;56729;52.036;5.332;2023-09-19T04:34:05;13.10;99.90
69533;DHT22;56729;52.036;5.332;2023-09-19T04:35:08;13.10;99.90
69533;DHT22;56729;52.036;5.332;2023-09-19T04:36:10;13.10;99.90
69533;DHT22;56729;52.036;5.332;2023-09-19T04:37:38;13.10;99.90
69533;DHT22;56729;52.036;5.332;2023-09-19T04:38:40;13.10;99.90
69533;DHT22;56729;52.036;5.332;2023-09-19T04:39:45;13.10;99.90
69533;DHT22;56729;52.036;5.332;2023-09-19T04:40:50;13.10;99.90
69533;DHT22;56729;52.036;5.332;2023-09-19T04:41:53;13.10;99.90
69533;DHT22;56729;52.036;5.332;2023-09-19T04:42:57;13.10;99.90
69533;DHT22;56729;52.036;5.332;2023-09-19T04:44:00;13.10;99.90
69533;DHT22;56729;52.036;5.332;2023-09-19T04:45:02;13.10;99.90
69533;DHT22;56729;52.036;5.332;2023-09-19T04:46:05;13.10;99.90
69533;DHT22;56729;52.036;5.332;2023-09-19T04:47:08;13.10;99.90
69533;DHT22;56729;52.036;5.332;2023-09-19T04:48:10;13.10;99.90
69533;DHT22;56729;52.036;5.332;2023-09-19T04:49:13;13.20;99.90
69533;DHT22;56729;52.036;5.332;2023-09-19T04:50:15;13.20;99.90
69533;DHT22;56729;52.036;5.332;2023-09-19T04:51:20;13.20;99.90
69533;DHT22;56729;52.036;5.332;2023-09-19T04:52:23;13.20;99.90
69533;DHT22;56729;52.036;5.332;2023-09-19T04:53:26;13.20;99.90
69533;DHT22;56729;52.036;5.332;2023-09-19T04:54:30;13.20;99.90
69533;DHT22;56729;52.036;5.332;2023-09-19T04:55:31;13.10;99.90
69533;DHT22;56729;52.036;5.332;2023-09-19T04:56:34;13.10;99.90
69533;DHT22;56729;52.036;5.332;2023-09-19T04:57:36;13.10;99.90
69533;DHT22;56729;52.036;5.332;2023-09-19T04:58:38;13.10;99.90
69533;DHT22;56729;52.036;5.332;2023-09-19T04:59:40;13.10;99.90
69533;DHT22;56729;52.036;5.332;2023-09-19T05:00:43;13.10;99.90
69533;DHT22;56729;52.036;5.332;2023-09-19T05:01:45;13.10;99.90
69533;DHT22;56729;52.036;5.332;2023-09-19T05:02:52;13.10;99.90
69533;DHT22;56729;52.036;5.332;2023-09-19T05:03:54;13.00;99.90
69533;DHT22;56729;52.036;5.332;2023-09-19T05:04:57;13.00;99.90
69533;DHT22;56729;52.036;5.332;2023-09-19T05:06:01;13.00;99.90
69533;DHT22;56729;52.036;5.332;2023-09-19T05:07:03;13.00;99.90
69533;DHT22;56729;52.036;5.332;2023-09-19T05:08:09;13.00;99.90
69533;DHT22;56729;52.036;5.332;2023-09-19T05:09:11;13.00;99.90
69533;DHT22;56729;52.036;5.332;2023-09-19T05:10:14;13.00;99.90
69533;DHT22;56729;52.036;5.332;2023-09-19T05:11:20;13.00;99.90
69533;DHT22;56729;52.036;5.332;2023-09-19T05:12:26;13.00;99.90
69533;DHT22;56729;52.036;5.332;2023-09-19T05:13:28;13.00;99.90
69533;DHT22;56729;52.036;5.332;2023-09-19T05:14:31;13.00;99.90
69533;DHT22;56729;52.036;5.332;2023-09-19T05:15:33;13.00;99.90
69533;DHT22;56729;52.036;5.332;2023-09-19T05:16:35;13.00;99.90
69533;DHT22;56729;52.036;5.332;2023-09-19T05:17:37;13.00;99.90
69533;DHT22;56729;52.036;5.332;2023-09-19T05:18:40;13.00;99.90
69533;DHT22;56729;52.036;5.332;2023-09-19T05:19:42;13.00;99.90
69533;DHT22;56729;52.036;5.332;2023-09-19T05:20:45;13.00;99.90
69533;DHT22;56729;52.036;5.332;2023-09-19T05:21:48;13.00;99.90
69533;DHT22;56729;52.036;5.332;2023-09-19T05:22:58;13.00;99.90
69533;DHT22;56729;52.036;5.332;2023-09-19T05:24:02;13.00;99.90
69533;DHT22;56729;52.036;5.332;2023-09-19T05:25:05;13.00;99.90
69533;DHT22;56729;52.036;5.332;2023-09-19T05:26:07;13.00;99.90
69533;DHT22;56729;52.036;5.332;2023-09-19T05:27:09;13.00;99.90
69533;DHT22;56729;52.036;5.332;2023-09-19T05:28:11;13.00;99.90
69533;DHT22;56729;52.036;5.332;2023-09-19T05:29:18;13.10;99.90
69533;DHT22;56729;52.036;5.332;2023-09-19T05:30:27;13.00;99.90
69533;DHT22;56729;52.036;5.332;2023-09-19T05:31:29;13.10;99.90
69533;DHT22;56729;52.036;5.332;2023-09-19T05:32:31;13.10;99.90
69533;DHT22;56729;52.036;5.332;2023-09-19T05:33:33;13.10;99.90
69533;DHT22;56729;52.036;5.332;2023-09-19T05:34:35;13.10;99.90
69533;DHT22;56729;52.036;5.332;2023-09-19T05:35:37;13.10;99.90
69533;DHT22;56729;52.036;5.332;2023-09-19T05:36:41;13.10;99.90
69533;DHT22;56729;52.036;5.332;2023-09-19T05:37:43;13.10;99.90
69533;DHT22;56729;52.036;5.332;2023-09-19T05:38:45;13.20;99.90
69533;DHT22;56729;52.036;5.332;2023-09-19T05:39:50;13.20;99.90
69533;DHT22;56729;52.036;5.332;2023-09-19T05:40:52;13.10;99.90
69533;DHT22;56729;52.036;5.332;2023-09-19T05:41:54;13.10;99.90
69533;DHT22;56729;52.036;5.332;2023-09-19T05:43:01;13.20;99.90
69533;DHT22;56729;52.036;5.332;2023-09-19T05:44:07;13.20;99.90
69533;DHT22;56729;52.036;5.332;2023-09-19T05:45:10;13.20;99.90
69533;DHT22;56729;52.036;5.332;2023-09-19T05:46:17;13.20;99.90
69533;DHT22;56729;52.036;5.332;2023-09-19T05:47:22;13.20;99.90
69533;DHT22;56729;52.036;5.332;2023-09-19T05:48:27;13.20;99.90
69533;DHT22;56729;52.036;5.332;2023-09-19T05:49:29;13.20;99.90
69533;DHT22;56729;52.036;5.332;2023-09-19T05:50:31;13.20;99.90
69533;DHT22;56729;52.036;5.332;2023-09-19T05:51:34;13.20;99.90
69533;DHT22;56729;52.036;5.332;2023-09-19T05:52:40;13.20;99.90
69533;DHT22;56729;52.036;5.332;2023-09-19T05:53:44;13.20;99.90
69533;DHT22;56729;52.036;5.332;2023-09-19T05:54:50;13.20;99.90
69533;DHT22;56729;52.036;5.332;2023-09-19T05:55:52;13.20;99.90
69533;DHT22;56729;52.036;5.332;2023-09-19T05:56:57;13.20;99.90
69533;DHT22;56729;52.036;5.332;2023-09-19T05:57:59;13.30;99.90
69533;DHT22;56729;52.036;5.332;2023-09-19T05:59:01;13.20;99.90
69533;DHT22;56729;52.036;5.332;2023-09-19T06:00:03;13.20;99.90
69533;DHT22;56729;52.036;5.332;2023-09-19T06:01:12;13.30;99.90
69533;DHT22;56729;52.036;5.332;2023-09-19T06:02:14;13.30;99.90
69533;DHT22;56729;52.036;5.332;2023-09-19T06:03:17;13.30;99.90
69533;DHT22;56729;52.036;5.332;2023-09-19T06:04:22;13.30;99.90
69533;DHT22;56729;52.036;5.332;2023-09-19T06:05:26;13.30;99.90
69533;DHT22;56729;52.036;5.332;2023-09-19T06:06:29;13.30;99.90
69533;DHT22;56729;52.036;5.332;2023-09-19T06:07:36;13.30;99.90
69533;DHT22;56729;52.036;5.332;2023-09-19T06:08:40;13.30;99.90
69533;DHT22;56729;52.036;5.332;2023-09-19T06:09:42;13.30;99.90
69533;DHT22;56729;52.036;5.332;2023-09-19T06:10:44;13.30;99.90
69533;DHT22;56729;52.036;5.332;2023-09-19T06:11:49;13.30;99.90
69533;DHT22;56729;52.036;5.332;2023-09-19T06:12:52;13.40;99.90
69533;DHT22;56729;52.036;5.332;2023-09-19T06:13:54;13.40;99.90
69533;DHT22;56729;52.036;5.332;2023-09-19T06:14:57;13.40;99.90
69533;DHT22;56729;52.036;5.332;2023-09-19T06:16:03;13.40;99.90
69533;DHT22;56729;52.036;5.332;2023-09-19T06:17:07;13.40;99.90
69533;DHT22;56729;52.036;5.332;2023-09-19T06:18:12;13.40;99.90
69533;DHT22;56729;52.036;5.332;2023-09-19T06:19:23;13.40;99.90
69533;DHT22;56729;52.036;5.332;2023-09-19T06:20:28;13.40;99.90
69533;DHT22;56729;52.036;5.332;2023-09-19T06:21:30;13.50;99.90
69533;DHT22;56729;52.036;5.332;2023-09-19T06:22:33;13.50;99.90
69533;DHT22;56729;52.036;5.332;2023-09-19T06:23:36;13.50;99.90
69533;DHT22;56729;52.036;5.332;2023-09-19T06:24:38;13.50;99.90
69533;DHT22;56729;52.036;5.332;2023-09-19T06:25:41;13.50;99.90
69533;DHT22;56729;52.036;5.332;2023-09-19T06:26:53;13.50;99.90
69533;DHT22;56729;52.036;5.332;2023-09-19T06:27:56;13.50;99.90
69533;DHT22;56729;52.036;5.332;2023-09-19T06:28:59;13.50;99.90
69533;DHT22;56729;52.036;5.332;2023-09-19T06:30:02;13.60;99.90
69533;DHT22;56729;52.036;5.332;2023-09-19T06:31:04;13.60;99.90
69533;DHT22;56729;52.036;5.332;2023-09-19T06:32:11;13.60;99.90
69533;DHT22;56729;52.036;5.332;2023-09-19T06:33:14;13.60;99.90
69533;DHT22;56729;52.036;5.332;2023-09-19T06:34:21;13.60;99.90
69533;DHT22;56729;52.036;5.332;2023-09-19T06:35:24;13.60;99.90
69533;DHT22;56729;52.036;5.332;2023-09-19T06:36:28;13.60;99.90
69533;DHT22;56729;52.036;5.332;2023-09-19T06:37:30;13.70;99.90
69533;DHT22;56729;52.036;5.332;2023-09-19T06:38:33;13.70;99.90
69533;DHT22;56729;52.036;5.332;2023-09-19T06:39:56;13.70;99.90
69533;DHT22;56729;52.036;5.332;2023-09-19T06:40:58;13.70;99.90
69533;DHT22;56729;52.036;5.332;2023-09-19T06:42:01;13.70;99.90
69533;DHT22;56729;52.036;5.332;2023-09-19T06:43:04;13.70;99.90
69533;DHT22;56729;52.036;5.332;2023-09-19T06:44:07;13.80;99.90
69533;DHT22;56729;52.036;5.332;2023-09-19T06:45:12;13.80;99.90
69533;DHT22;56729;52.036;5.332;2023-09-19T06:46:19;13.80;99.90
69533;DHT22;56729;52.036;5.332;2023-09-19T06:47:21;13.80;99.90
69533;DHT22;56729;52.036;5.332;2023-09-19T06:48:23;13.80;99.90
69533;DHT22;56729;52.036;5.332;2023-09-19T06:49:30;13.80;99.90
69533;DHT22;56729;52.036;5.332;2023-09-19T06:50:34;13.90;99.90
69533;DHT22;56729;52.036;5.332;2023-09-19T06:51:38;13.90;99.90
69533;DHT22;56729;52.036;5.332;2023-09-19T06:52:43;13.90;99.90
69533;DHT22;56729;52.036;5.332;2023-09-19T06:53:45;13.90;99.90
69533;DHT22;56729;52.036;5.332;2023-09-19T06:54:47;13.90;99.90
69533;DHT22;56729;52.036;5.332;2023-09-19T06:55:52;14.00;99.90
69533;DHT22;56729;52.036;5.332;2023-09-19T06:56:54;14.00;99.90
69533;DHT22;56729;52.036;5.332;2023-09-19T06:57:57;14.00;99.90